createdAt,value
2023-03-10T00:01:17.150Z,22.98
2023-03-10T00:03:45.252Z,24.70
2023-03-10T00:06:15.315Z,25.77
2023-03-10T00:08:42.837Z,25.20
2023-03-10T00:11:10.058Z,27.83
2023-03-10T00:13:36.941Z,21.83
2023-03-10T00:16:04.102Z,24.75
2023-03-10T00:18:30.959Z,26.00
2023-03-10T00:20:58.989Z,25.42
2023-03-10T00:23:25.961Z,24.70
2023-03-10T00:26:00.729Z,25.67
2023-03-10T00:28:28.411Z,27.13
2023-03-10T00:31:04.353Z,26.35
2023-03-10T00:33:32.892Z,27.70
2023-03-10T00:36:11.255Z,27.63
2023-03-10T00:41:07.882Z,25.70
2023-03-10T00:43:35.902Z,25.80
2023-03-10T00:46:03.125Z,25.35
2023-03-10T00:48:30.614Z,26.05
2023-03-10T00:50:57.934Z,29.35
2023-03-10T00:53:24.815Z,26.60
2023-03-10T00:56:05.669Z,26.30
2023-03-10T00:58:32.838Z,26.05
2023-03-10T01:01:00.282Z,29.63
2023-03-10T01:03:28.075Z,27.33
2023-03-10T01:05:55.826Z,24.08
2023-03-10T01:08:23.306Z,26.77
2023-03-10T01:10:50.503Z,30.27
2023-03-10T01:13:18.394Z,27.58
2023-03-10T01:15:47.906Z,24.88
2023-03-10T01:18:16.091Z,24.08
2023-03-10T01:20:43.416Z,25.15
2023-03-10T01:23:15.763Z,27.08
2023-03-10T01:25:43.205Z,28.50
2023-03-10T01:28:10.553Z,26.67
2023-03-10T01:30:38.305Z,27.20
2023-03-10T01:33:05.847Z,27.63
2023-03-10T01:35:33.281Z,28.40
2023-03-10T01:37:59.994Z,29.20
2023-03-10T01:40:27.285Z,29.45
2023-03-10T01:43:16.623Z,27.23
2023-03-10T01:46:03.710Z,26.30
2023-03-10T01:48:34.190Z,30.70
2023-03-10T01:51:01.460Z,26.23
2023-03-10T01:53:29.703Z,27.58
2023-03-10T01:56:02.560Z,29.80
2023-03-10T01:58:35.350Z,28.88
2023-03-10T02:01:02.219Z,26.05
2023-03-10T02:03:41.972Z,29.77
2023-03-10T02:06:11.705Z,27.88
2023-03-10T02:08:44.273Z,29.95
2023-03-10T02:11:13.320Z,30.15
2023-03-10T02:13:40.071Z,29.00
2023-03-10T02:16:07.321Z,31.40
2023-03-10T02:18:34.169Z,27.55
2023-03-10T02:21:39.454Z,27.00
2023-03-10T02:24:28.582Z,27.75
2023-03-10T02:27:04.070Z,29.13
2023-03-10T02:29:52.548Z,29.13
2023-03-10T02:32:26.278Z,26.77
2023-03-10T02:34:53.122Z,28.65
2023-03-10T02:37:34.490Z,30.98
2023-03-10T02:40:01.997Z,27.95
2023-03-10T02:42:34.461Z,28.33
2023-03-10T02:45:03.506Z,29.35
2023-03-10T02:47:30.382Z,29.55
2023-03-10T02:49:57.102Z,29.98
2023-03-10T02:52:38.222Z,35.28
2023-03-10T02:55:05.514Z,28.33
2023-03-10T02:57:32.168Z,31.48
2023-03-10T02:59:58.888Z,29.67
2023-03-10T03:02:25.724Z,28.58
2023-03-10T03:04:52.590Z,30.67
2023-03-10T03:07:19.283Z,31.52
2023-03-10T03:09:46.098Z,32.20
2023-03-10T03:12:12.766Z,32.30
2023-03-10T03:14:39.459Z,30.48
2023-03-10T03:17:06.249Z,28.00
2023-03-10T03:19:33.054Z,29.25
2023-03-10T03:22:00.293Z,30.63
2023-03-10T03:24:27.220Z,30.73
2023-03-10T03:26:53.958Z,31.45
2023-03-10T03:29:20.709Z,31.15
2023-03-10T03:31:47.705Z,27.02
2023-03-10T03:34:15.666Z,28.40
2023-03-10T03:36:42.566Z,28.67
2023-03-10T03:39:09.295Z,30.88
2023-03-10T03:41:36.141Z,31.23
2023-03-10T03:44:03.386Z,30.80
2023-03-10T03:46:30.191Z,30.77
2023-03-10T03:48:56.845Z,29.60
2023-03-10T03:51:23.621Z,31.02
2023-03-10T03:53:50.354Z,28.23
2023-03-10T03:56:17.050Z,31.10
2023-03-10T03:58:43.874Z,31.20
2023-03-10T04:01:10.725Z,31.42
2023-03-10T04:03:37.387Z,31.65
2023-03-10T04:06:07.135Z,32.67
2023-03-10T04:08:33.812Z,34.20
2023-03-10T04:11:00.564Z,33.22
2023-03-10T04:13:27.206Z,31.10
2023-03-10T04:15:58.779Z,33.65
2023-03-10T04:18:26.345Z,31.50
2023-03-10T04:20:53.085Z,32.85
2023-03-10T04:23:20.037Z,36.75
2023-03-10T04:25:46.708Z,31.42
2023-03-10T04:28:13.366Z,31.67
2023-03-10T04:30:44.481Z,31.50
2023-03-10T04:33:11.996Z,33.35
2023-03-10T04:35:41.106Z,36.90
2023-03-10T04:38:07.967Z,34.30
2023-03-10T04:40:34.983Z,32.67
2023-03-10T04:43:01.707Z,34.72
2023-03-10T04:45:28.367Z,35.80
2023-03-10T04:47:55.083Z,33.45
2023-03-10T04:50:21.707Z,32.60
2023-03-10T04:52:50.149Z,31.55
2023-03-10T04:55:16.912Z,32.85
2023-03-10T04:57:43.712Z,36.47
2023-03-10T05:00:12.729Z,29.52
2023-03-10T05:02:40.422Z,34.38
2023-03-10T05:05:07.496Z,34.65
2023-03-10T05:07:34.241Z,34.63
2023-03-10T05:10:01.080Z,35.80
2023-03-10T05:12:27.888Z,33.85
2023-03-10T05:14:54.657Z,36.33
2023-03-10T05:17:21.449Z,37.45
2023-03-10T05:19:48.220Z,36.85
2023-03-10T05:22:14.949Z,37.25
2023-03-10T05:24:42.881Z,42.75
2023-03-10T05:27:10.523Z,38.50
2023-03-10T05:29:39.129Z,43.92
2023-03-10T05:32:06.411Z,47.10
2023-03-10T05:34:33.297Z,43.47
2023-03-10T05:37:00.054Z,40.55
2023-03-10T05:39:26.869Z,43.35
2023-03-10T05:41:53.622Z,42.22
2023-03-10T05:44:20.301Z,43.72
2023-03-10T05:46:47.145Z,45.15
2023-03-10T05:49:13.915Z,45.78
2023-03-10T05:51:40.629Z,45.42
2023-03-10T05:54:07.442Z,50.45
2023-03-10T05:56:34.210Z,48.33
2023-03-10T05:59:01.591Z,45.63
2023-03-10T06:01:28.435Z,46.05
2023-03-10T06:03:55.152Z,51.17
2023-03-10T06:06:21.872Z,48.25
2023-03-10T06:08:48.626Z,48.65
2023-03-10T06:11:15.588Z,48.78
2023-03-10T06:13:42.354Z,42.25
2023-03-10T06:16:09.065Z,47.47
2023-03-10T06:18:35.876Z,45.85
2023-03-10T06:21:08.149Z,45.95
2023-03-10T06:23:35.508Z,43.58
2023-03-10T06:26:08.653Z,43.13
2023-03-10T06:28:38.304Z,42.10
2023-03-10T06:31:08.293Z,43.58
2023-03-10T06:33:35.192Z,35.40
2023-03-10T06:36:02.029Z,37.38
2023-03-10T06:38:28.925Z,44.42
2023-03-10T06:40:55.685Z,33.78
2023-03-10T06:43:22.549Z,35.95
2023-03-10T06:45:49.303Z,36.35
2023-03-10T06:48:16.940Z,35.80
2023-03-10T06:50:48.215Z,33.95
2023-03-10T06:53:17.479Z,35.00
2023-03-10T06:55:44.232Z,35.08
2023-03-10T06:58:11.430Z,34.80
2023-03-10T07:00:39.742Z,34.63
2023-03-10T07:03:06.735Z,36.03
2023-03-10T07:05:33.616Z,32.03
2023-03-10T07:08:00.391Z,36.40
2023-03-10T07:10:27.121Z,31.65
2023-03-10T07:12:56.785Z,31.08
2023-03-10T07:15:23.581Z,32.78
2023-03-10T07:17:50.827Z,30.80
2023-03-10T07:20:18.437Z,31.95
2023-03-10T07:22:45.190Z,30.80
2023-03-10T07:25:12.153Z,33.88
2023-03-10T07:27:38.915Z,30.70
2023-03-10T07:30:07.170Z,30.70
2023-03-10T07:32:34.323Z,30.42
2023-03-10T07:35:01.264Z,30.95
2023-03-10T07:37:28.003Z,29.27
2023-03-10T07:39:55.497Z,30.13
2023-03-10T07:42:22.296Z,28.65
2023-03-10T07:44:49.065Z,27.67
2023-03-10T07:47:15.876Z,30.67
2023-03-10T07:49:46.717Z,29.27
2023-03-10T07:52:16.827Z,28.20
2023-03-10T07:54:46.884Z,27.88
2023-03-10T07:57:14.861Z,26.90
2023-03-10T07:59:42.584Z,26.75
2023-03-10T08:02:13.033Z,27.65
2023-03-10T08:04:41.285Z,25.80
2023-03-10T08:07:09.171Z,28.30
2023-03-10T08:09:35.946Z,28.25
2023-03-10T08:12:03.470Z,28.75
2023-03-10T08:14:32.157Z,27.23
2023-03-10T08:16:59.388Z,25.67
2023-03-10T08:19:27.490Z,23.95
2023-03-10T08:21:56.103Z,23.98
2023-03-10T08:24:23.011Z,28.30
2023-03-10T08:26:50.326Z,25.30
2023-03-10T08:29:17.511Z,25.60
2023-03-10T08:31:44.520Z,25.42
2023-03-10T08:34:11.524Z,23.05
2023-03-10T08:36:39.158Z,24.00
2023-03-10T08:39:07.074Z,25.50
2023-03-10T08:41:37.561Z,25.67
2023-03-10T08:44:05.564Z,25.25
2023-03-10T08:46:33.593Z,25.90
2023-03-10T08:49:01.227Z,26.30
2023-03-10T08:51:28.863Z,23.30
2023-03-10T08:53:55.679Z,23.63
2023-03-10T08:56:23.537Z,26.80
2023-03-10T08:58:50.602Z,24.45
2023-03-10T09:01:17.987Z,26.75
2023-03-10T09:03:46.127Z,26.65
2023-03-10T09:06:14.193Z,27.48
2023-03-10T09:08:41.495Z,26.90
2023-03-10T09:11:10.000Z,24.35
2023-03-10T09:13:36.748Z,24.30
2023-03-10T09:16:03.599Z,23.00
2023-03-10T09:18:30.357Z,25.75
2023-03-10T09:20:57.191Z,24.45
2023-03-10T09:23:23.957Z,25.52
2023-03-10T09:25:50.589Z,25.48
2023-03-10T09:28:18.817Z,25.55
2023-03-10T09:30:46.490Z,24.13
2023-03-10T09:33:19.537Z,23.50
2023-03-10T09:35:52.726Z,29.60
2023-03-10T09:38:19.819Z,23.60
2023-03-10T09:40:51.182Z,24.75
2023-03-10T09:43:19.939Z,24.38
2023-03-10T09:45:49.921Z,22.85
2023-03-10T09:48:48.964Z,22.55
2023-03-10T09:51:22.079Z,23.00
2023-03-10T09:54:19.676Z,22.95
2023-03-10T09:56:46.503Z,22.08
2023-03-10T09:59:18.116Z,25.45
2023-03-10T10:01:48.074Z,24.33
2023-03-10T10:04:22.691Z,22.70
2023-03-10T10:06:51.177Z,25.67
2023-03-10T10:09:27.988Z,22.35
2023-03-10T10:11:56.012Z,19.77
2023-03-10T10:14:31.006Z,21.63
2023-03-10T10:17:20.318Z,21.23
2023-03-10T10:19:48.060Z,24.15
2023-03-10T10:22:26.595Z,22.98
2023-03-10T10:25:02.806Z,21.88
2023-03-10T10:27:31.571Z,20.13
2023-03-10T10:29:58.649Z,21.98
2023-03-10T10:32:25.540Z,23.52
2023-03-10T10:35:11.953Z,20.52
2023-03-10T10:37:43.137Z,22.75
2023-03-10T10:40:24.636Z,22.33
2023-03-10T10:42:55.953Z,20.10
2023-03-10T10:45:32.687Z,21.38
2023-03-10T10:47:59.421Z,22.13
2023-03-10T10:50:37.397Z,21.88
2023-03-10T10:53:16.499Z,21.08
2023-03-10T10:55:45.482Z,22.88
2023-03-10T10:58:37.559Z,22.25
2023-03-10T11:01:12.215Z,24.60
2023-03-10T11:03:43.919Z,21.88
2023-03-10T11:06:20.903Z,23.98
2023-03-10T11:08:51.382Z,21.27
2023-03-10T11:11:31.379Z,21.70
2023-03-10T11:13:58.116Z,20.85
2023-03-10T11:16:49.206Z,23.75
2023-03-10T11:19:35.241Z,20.75
2023-03-10T11:22:20.920Z,21.15
2023-03-10T11:25:26.004Z,21.58
2023-03-10T11:28:19.520Z,22.83
2023-03-10T11:31:01.711Z,18.27
2023-03-10T11:33:37.205Z,22.08
2023-03-10T11:36:40.709Z,20.65
2023-03-10T11:39:23.721Z,19.35
2023-03-10T11:41:57.720Z,18.83
2023-03-10T11:44:49.286Z,19.38
2023-03-10T11:47:24.955Z,20.27
2023-03-10T11:50:06.972Z,20.75
2023-03-10T11:52:34.436Z,19.95
2023-03-10T11:55:05.901Z,17.80
2023-03-10T11:57:40.151Z,20.42
2023-03-10T12:00:16.651Z,21.23
2023-03-10T12:02:56.492Z,19.77
2023-03-10T12:05:24.960Z,21.65
2023-03-10T12:07:54.716Z,19.25
2023-03-10T12:10:22.953Z,20.45
2023-03-10T12:12:51.580Z,21.17
2023-03-10T12:15:38.166Z,17.80
2023-03-10T12:18:07.017Z,18.48
2023-03-10T12:20:35.439Z,19.52
2023-03-10T12:23:11.484Z,20.08
2023-03-10T12:25:38.688Z,21.52
2023-03-10T12:28:17.769Z,21.38
2023-03-10T12:30:56.720Z,20.48
2023-03-10T12:33:39.386Z,18.05
2023-03-10T12:36:13.347Z,20.23
2023-03-10T12:38:49.133Z,18.80
2023-03-10T12:41:28.239Z,18.30
2023-03-10T12:44:25.059Z,17.13
2023-03-10T12:47:09.208Z,19.92
2023-03-10T12:49:42.113Z,17.15
2023-03-10T12:52:31.824Z,18.50
2023-03-10T12:55:05.388Z,16.73
2023-03-10T12:57:48.790Z,16.63
2023-03-10T13:00:30.418Z,18.40
2023-03-10T13:03:09.765Z,16.83
2023-03-10T13:05:57.773Z,17.73
2023-03-10T13:08:39.890Z,17.35
2023-03-10T13:11:25.364Z,16.52
2023-03-10T13:14:15.651Z,16.10
2023-03-10T13:16:53.808Z,18.88
2023-03-10T13:19:26.476Z,17.75
2023-03-10T13:21:53.992Z,16.75
2023-03-10T13:24:29.344Z,18.60
2023-03-10T13:27:25.102Z,17.48
2023-03-10T13:30:02.475Z,16.25
2023-03-10T13:32:30.905Z,18.77
2023-03-10T13:34:58.786Z,16.17
2023-03-10T13:37:26.138Z,18.40
2023-03-10T13:39:53.159Z,17.30
2023-03-10T13:42:37.047Z,15.02
2023-03-10T13:45:21.249Z,15.75
2023-03-10T13:47:48.056Z,18.45
2023-03-10T13:50:16.688Z,17.33
2023-03-10T13:52:59.514Z,17.75
2023-03-10T13:55:39.593Z,17.17
2023-03-10T13:58:07.406Z,17.27
2023-03-10T14:00:34.860Z,17.58
2023-03-10T14:03:02.512Z,18.27
2023-03-10T14:05:45.799Z,15.27
2023-03-10T14:08:28.417Z,18.27
2023-03-10T14:11:35.662Z,20.42
2023-03-10T14:14:05.263Z,18.23
2023-03-10T14:16:47.398Z,17.40
2023-03-10T14:19:34.682Z,18.85
2023-03-10T14:22:02.346Z,17.73
2023-03-10T14:24:29.425Z,18.38
2023-03-10T14:27:00.726Z,21.58
2023-03-10T14:29:27.611Z,21.17
2023-03-10T14:31:54.438Z,20.02
2023-03-10T14:34:21.247Z,19.35
2023-03-10T14:36:47.967Z,19.35
2023-03-10T14:39:14.819Z,21.05
2023-03-10T14:41:41.592Z,21.38
2023-03-10T14:44:10.782Z,19.70
2023-03-10T14:46:37.791Z,20.17
2023-03-10T14:49:10.916Z,17.05
2023-03-10T14:51:37.647Z,18.63
2023-03-10T14:54:04.508Z,19.70
2023-03-10T14:56:32.129Z,20.05
2023-03-10T14:59:02.140Z,20.50
2023-03-10T15:01:29.399Z,21.98
2023-03-10T15:03:56.405Z,18.52
2023-03-10T15:06:23.306Z,19.02
2023-03-10T15:08:50.079Z,19.52
2023-03-10T15:11:23.971Z,21.58
2023-03-10T15:13:53.698Z,20.92
2023-03-10T15:16:20.571Z,19.27
2023-03-10T15:18:49.174Z,21.90
2023-03-10T15:21:16.038Z,20.80
2023-03-10T15:23:42.704Z,19.73
2023-03-10T15:26:11.747Z,19.05
2023-03-10T15:28:39.675Z,19.27
2023-03-10T15:31:06.827Z,18.05
2023-03-10T15:33:33.821Z,18.00
2023-03-10T15:36:00.854Z,17.88
2023-03-10T15:38:27.693Z,17.80
2023-03-10T15:40:54.556Z,18.25
2023-03-10T15:43:21.304Z,19.77
2023-03-10T15:45:50.250Z,19.02
2023-03-10T15:48:17.177Z,19.70
2023-03-10T15:50:47.055Z,17.90
2023-03-10T15:53:14.267Z,19.00
2023-03-10T15:55:42.388Z,16.83
2023-03-10T15:58:10.898Z,17.45
2023-03-10T16:00:37.901Z,19.55
2023-03-10T16:03:04.590Z,21.85
2023-03-10T16:05:31.314Z,18.80
2023-03-10T16:07:58.025Z,17.33
2023-03-10T16:10:24.801Z,17.70
2023-03-10T16:12:51.768Z,18.17
2023-03-10T16:15:18.677Z,16.60
2023-03-10T16:17:45.683Z,19.50
2023-03-10T16:20:13.788Z,17.90
2023-03-10T16:22:42.891Z,19.80
2023-03-10T16:25:18.688Z,19.08
2023-03-10T16:27:46.838Z,19.83
2023-03-10T16:30:15.557Z,20.05
2023-03-10T16:32:50.193Z,21.05
2023-03-10T16:35:18.053Z,19.33
2023-03-10T16:37:44.781Z,21.50
2023-03-10T16:40:12.262Z,19.05
2023-03-10T16:42:38.934Z,22.17
2023-03-10T16:45:06.682Z,21.90
2023-03-10T16:47:33.879Z,17.10
2023-03-10T16:50:00.645Z,18.10
2023-03-10T16:52:27.399Z,18.60
2023-03-10T16:54:57.998Z,19.00
2023-03-10T16:57:24.657Z,18.38
2023-03-10T16:59:51.429Z,19.02
2023-03-10T17:02:18.288Z,18.20
2023-03-10T17:04:45.438Z,18.08
2023-03-10T17:07:12.428Z,19.50
2023-03-10T17:09:39.210Z,20.20
2023-03-10T17:12:06.976Z,18.90
2023-03-10T17:14:33.851Z,17.75
2023-03-10T17:17:01.434Z,20.02
2023-03-10T17:19:31.031Z,20.15
2023-03-10T17:21:58.565Z,20.23
2023-03-10T17:24:25.748Z,21.08
2023-03-10T17:26:52.698Z,19.38
2023-03-10T17:29:21.087Z,17.42
2023-03-10T17:31:51.542Z,18.83
2023-03-10T17:34:19.339Z,17.73
2023-03-10T17:36:46.890Z,17.05
2023-03-10T17:39:19.013Z,17.30
2023-03-10T17:41:46.086Z,16.70
2023-03-10T17:44:12.803Z,18.63
2023-03-10T17:46:41.047Z,19.23
2023-03-10T17:49:12.266Z,18.38
2023-03-10T17:51:43.361Z,16.83
2023-03-10T17:54:13.264Z,17.00
2023-03-10T17:56:40.119Z,15.65
2023-03-10T17:59:06.855Z,17.75
2023-03-10T18:01:34.054Z,15.70
2023-03-10T18:04:01.254Z,16.52
2023-03-10T18:06:30.726Z,16.45
2023-03-10T18:08:59.297Z,16.30
2023-03-10T18:11:27.042Z,14.63
2023-03-10T18:13:54.110Z,15.98
2023-03-10T18:16:24.377Z,14.98
2023-03-10T18:18:51.354Z,14.20
2023-03-10T18:21:19.213Z,13.52
2023-03-10T18:23:46.593Z,15.73
2023-03-10T18:26:16.631Z,14.40
2023-03-10T18:28:43.406Z,13.88
2023-03-10T18:31:17.283Z,12.63
2023-03-10T18:33:44.064Z,14.77
2023-03-10T18:36:13.676Z,12.35
2023-03-10T18:38:41.133Z,12.15
2023-03-10T18:41:07.847Z,14.27
2023-03-10T18:43:34.734Z,13.60
2023-03-10T18:46:02.074Z,12.27
2023-03-10T18:48:29.785Z,11.10
2023-03-10T18:50:58.499Z,12.25
2023-03-10T18:53:26.526Z,13.10
2023-03-10T18:55:54.596Z,11.30
2023-03-10T18:58:22.061Z,11.57
2023-03-10T19:00:49.488Z,10.27
2023-03-10T19:03:16.565Z,10.50
2023-03-10T19:05:43.429Z,9.65
2023-03-10T19:08:10.908Z,10.68
2023-03-10T19:10:39.434Z,9.70
2023-03-10T19:13:07.615Z,11.50
2023-03-10T19:15:36.788Z,11.63
2023-03-10T19:18:04.011Z,11.95
2023-03-10T19:20:30.788Z,11.70
2023-03-10T19:22:57.543Z,11.75
2023-03-10T19:25:24.182Z,11.13
2023-03-10T19:27:50.953Z,11.43
2023-03-10T19:30:22.650Z,10.88
2023-03-10T19:32:49.445Z,14.82
2023-03-10T19:35:16.646Z,12.75
2023-03-10T19:37:44.331Z,11.68
2023-03-10T19:40:14.676Z,12.98
2023-03-10T19:42:42.979Z,13.57
2023-03-10T19:45:15.977Z,12.43
2023-03-10T19:47:43.508Z,12.88
2023-03-10T19:50:12.908Z,13.77
2023-03-10T19:52:47.262Z,17.95
2023-03-10T19:55:19.983Z,12.98
2023-03-10T19:57:48.659Z,12.95
2023-03-10T20:00:19.113Z,13.90
2023-03-10T20:02:46.222Z,11.88
2023-03-10T20:05:16.537Z,11.82
2023-03-10T20:07:46.461Z,14.57
2023-03-10T20:10:15.722Z,11.98
2023-03-10T20:12:42.976Z,13.18
2023-03-10T20:15:11.316Z,12.63
2023-03-10T20:17:38.142Z,11.23
2023-03-10T20:20:10.193Z,13.20
2023-03-10T20:22:45.610Z,12.30
2023-03-10T20:25:18.077Z,12.55
2023-03-10T20:27:46.611Z,13.32
2023-03-10T20:30:20.893Z,11.60
2023-03-10T20:32:47.781Z,11.65
2023-03-10T20:35:15.710Z,13.52
2023-03-10T20:37:42.709Z,15.82
2023-03-10T20:40:13.130Z,14.30
2023-03-10T20:42:40.541Z,13.30
2023-03-10T20:45:09.978Z,12.57
2023-03-10T20:47:37.538Z,14.10
2023-03-10T20:50:06.522Z,12.75
2023-03-10T20:52:35.632Z,13.60
2023-03-10T20:55:04.168Z,14.18
2023-03-10T20:57:32.101Z,13.88
2023-03-10T20:59:59.203Z,15.40
2023-03-10T21:02:25.900Z,14.18
2023-03-10T21:04:52.695Z,12.35
2023-03-10T21:07:19.430Z,15.32
2023-03-10T21:09:46.302Z,14.30
2023-03-10T21:12:18.375Z,11.90
2023-03-10T21:14:45.745Z,12.77
2023-03-10T21:17:12.589Z,13.20
2023-03-10T21:19:39.430Z,13.88
2023-03-10T21:22:06.254Z,14.88
2023-03-10T21:24:34.422Z,13.40
2023-03-10T21:27:01.267Z,13.15
2023-03-10T21:29:28.174Z,14.55
2023-03-10T21:31:54.918Z,12.20
2023-03-10T21:34:21.805Z,11.77
2023-03-10T21:36:48.576Z,14.50
2023-03-10T21:39:15.317Z,11.93
2023-03-10T21:41:42.286Z,11.18
2023-03-10T21:44:10.796Z,12.68
2023-03-10T21:46:37.749Z,12.07
2023-03-10T21:49:04.672Z,13.77
2023-03-10T21:51:33.862Z,10.73
2023-03-10T21:54:01.854Z,12.68
2023-03-10T21:56:28.951Z,10.93
2023-03-10T21:58:56.894Z,10.18
2023-03-10T22:01:25.137Z,12.65
2023-03-10T22:03:52.223Z,11.90
2023-03-10T22:06:19.172Z,11.05
2023-03-10T22:08:46.287Z,12.05
2023-03-10T22:11:13.999Z,8.60
2023-03-10T22:13:41.074Z,11.00
2023-03-10T22:16:11.010Z,10.40
2023-03-10T22:18:38.215Z,9.25
2023-03-10T22:21:05.417Z,8.15
2023-03-10T22:23:32.168Z,10.05
2023-03-10T22:25:59.155Z,9.85
2023-03-10T22:28:25.948Z,10.85
2023-03-10T22:30:52.790Z,7.30
2023-03-10T22:33:20.260Z,9.38
2023-03-10T22:35:52.002Z,8.98
2023-03-10T22:38:20.363Z,10.38
2023-03-10T22:40:47.299Z,9.63
2023-03-10T22:43:14.603Z,9.43
2023-03-10T22:45:41.845Z,7.75
2023-03-10T22:48:08.749Z,7.30
2023-03-10T22:50:39.089Z,9.18
2023-03-10T22:53:09.165Z,7.28
2023-03-10T22:55:35.950Z,8.75
2023-03-10T22:58:04.683Z,6.93
2023-03-10T23:00:32.367Z,7.00
2023-03-10T23:02:59.548Z,8.65
2023-03-10T23:05:27.400Z,7.65
2023-03-10T23:07:54.885Z,8.10
2023-03-10T23:10:28.011Z,8.15
2023-03-10T23:12:55.908Z,7.68
2023-03-10T23:15:26.318Z,6.65
2023-03-10T23:17:54.646Z,6.80
2023-03-10T23:20:27.096Z,5.68
2023-03-10T23:22:55.477Z,7.43
2023-03-10T23:25:37.296Z,5.70
2023-03-10T23:28:05.806Z,6.68
2023-03-10T23:30:33.462Z,5.35
2023-03-10T23:33:00.660Z,5.97
2023-03-10T23:35:30.288Z,6.57
2023-03-10T23:37:58.370Z,7.88
2023-03-10T23:40:27.212Z,7.18
2023-03-10T23:42:55.438Z,6.93
2023-03-10T23:45:23.634Z,6.60
2023-03-10T23:47:51.192Z,6.85
2023-03-10T23:50:25.895Z,8.45
2023-03-10T23:52:53.141Z,6.40
2023-03-10T23:55:41.269Z,5.88
2023-03-10T23:58:08.852Z,6.22
